sensor_id;sensor_type;location;lat;lon;timestamp;P1;durP1;ratioP1;P2;durP2;ratioP2
28910;SDS011;16028;42.642;23.310;2023-07-08T00:02:00;18.45;;;16.35;;
28910;SDS011;16028;42.642;23.310;2023-07-08T00:04:27;20.13;;;16.83;;
28910;SDS011;16028;42.642;23.310;2023-07-08T00:06:54;21.25;;;16.50;;
28910;SDS011;16028;42.642;23.310;2023-07-08T00:09:21;18.23;;;16.33;;
28910;SDS011;16028;42.642;23.310;2023-07-08T00:11:48;18.15;;;15.82;;
28910;SDS011;16028;42.642;23.310;2023-07-08T00:14:15;18.63;;;16.55;;
28910;SDS011;16028;42.642;23.310;2023-07-08T00:16:43;21.95;;;17.52;;
28910;SDS011;16028;42.642;23.310;2023-07-08T00:19:10;20.25;;;17.15;;
28910;SDS011;16028;42.642;23.310;2023-07-08T00:21:37;21.45;;;17.80;;
28910;SDS011;16028;42.642;23.310;2023-07-08T00:24:04;20.10;;;17.77;;
28910;SDS011;16028;42.642;23.310;2023-07-08T00:26:31;24.23;;;17.83;;
28910;SDS011;16028;42.642;23.310;2023-07-08T00:28:58;19.13;;;17.00;;
28910;SDS011;16028;42.642;23.310;2023-07-08T00:31:24;20.48;;;17.27;;
28910;SDS011;16028;42.642;23.310;2023-07-08T00:33:54;25.85;;;17.10;;
28910;SDS011;16028;42.642;23.310;2023-07-08T00:36:22;20.42;;;17.27;;
28910;SDS011;16028;42.642;23.310;2023-07-08T00:38:49;25.33;;;17.23;;
28910;SDS011;16028;42.642;23.310;2023-07-08T00:41:18;19.90;;;17.40;;
28910;SDS011;16028;42.642;23.310;2023-07-08T00:43:49;24.08;;;17.17;;
28910;SDS011;16028;42.642;23.310;2023-07-08T00:46:25;21.88;;;16.98;;
28910;SDS011;16028;42.642;23.310;2023-07-08T00:49:00;20.08;;;16.15;;
28910;SDS011;16028;42.642;23.310;2023-07-08T00:51:36;18.35;;;16.42;;
28910;SDS011;16028;42.642;23.310;2023-07-08T00:54:04;19.17;;;16.33;;
28910;SDS011;16028;42.642;23.310;2023-07-08T00:56:32;21.80;;;16.88;;
28910;SDS011;16028;42.642;23.310;2023-07-08T00:59:06;18.80;;;16.80;;
28910;SDS011;16028;42.642;23.310;2023-07-08T01:01:35;20.63;;;16.88;;
28910;SDS011;16028;42.642;23.310;2023-07-08T01:04:09;21.25;;;18.40;;
28910;SDS011;16028;42.642;23.310;2023-07-08T01:06:40;19.92;;;15.48;;
28910;SDS011;16028;42.642;23.310;2023-07-08T01:09:12;21.02;;;16.45;;
28910;SDS011;16028;42.642;23.310;2023-07-08T01:11:41;22.73;;;16.60;;
28910;SDS011;16028;42.642;23.310;2023-07-08T01:14:09;20.50;;;16.40;;
28910;SDS011;16028;42.642;23.310;2023-07-08T01:16:38;24.50;;;17.88;;
28910;SDS011;16028;42.642;23.310;2023-07-08T01:19:08;18.15;;;16.00;;
28910;SDS011;16028;42.642;23.310;2023-07-08T01:21:45;18.58;;;16.55;;
28910;SDS011;16028;42.642;23.310;2023-07-08T01:24:13;18.08;;;15.98;;
28910;SDS011;16028;42.642;23.310;2023-07-08T01:26:42;20.35;;;16.10;;
28910;SDS011;16028;42.642;23.310;2023-07-08T01:29:10;17.83;;;15.75;;
28910;SDS011;16028;42.642;23.310;2023-07-08T01:31:38;19.08;;;15.80;;
28910;SDS011;16028;42.642;23.310;2023-07-08T01:34:07;17.63;;;15.70;;
28910;SDS011;16028;42.642;23.310;2023-07-08T01:36:37;19.02;;;15.32;;
28910;SDS011;16028;42.642;23.310;2023-07-08T01:39:11;17.20;;;14.82;;
28910;SDS011;16028;42.642;23.310;2023-07-08T01:41:40;17.50;;;15.60;;
28910;SDS011;16028;42.642;23.310;2023-07-08T01:44:18;16.70;;;14.60;;
28910;SDS011;16028;42.642;23.310;2023-07-08T01:46:47;19.58;;;15.32;;
28910;SDS011;16028;42.642;23.310;2023-07-08T01:49:15;19.08;;;16.20;;
28910;SDS011;16028;42.642;23.310;2023-07-08T01:51:42;16.95;;;15.23;;
28910;SDS011;16028;42.642;23.310;2023-07-08T01:54:11;17.15;;;14.85;;
28910;SDS011;16028;42.642;23.310;2023-07-08T01:56:38;16.52;;;13.90;;
28910;SDS011;16028;42.642;23.310;2023-07-08T01:59:04;18.42;;;14.30;;
28910;SDS011;16028;42.642;23.310;2023-07-08T02:01:31;16.55;;;13.77;;
28910;SDS011;16028;42.642;23.310;2023-07-08T02:03:58;16.92;;;14.40;;
28910;SDS011;16028;42.642;23.310;2023-07-08T02:06:25;16.88;;;14.25;;
28910;SDS011;16028;42.642;23.310;2023-07-08T02:08:52;17.90;;;14.07;;
28910;SDS011;16028;42.642;23.310;2023-07-08T02:11:21;17.05;;;14.45;;
28910;SDS011;16028;42.642;23.310;2023-07-08T02:13:48;17.23;;;14.13;;
28910;SDS011;16028;42.642;23.310;2023-07-08T02:16:15;17.20;;;14.65;;
28910;SDS011;16028;42.642;23.310;2023-07-08T02:18:42;19.55;;;13.93;;
28910;SDS011;16028;42.642;23.310;2023-07-08T02:21:08;16.00;;;13.85;;
28910;SDS011;16028;42.642;23.310;2023-07-08T02:23:35;16.02;;;13.07;;
28910;SDS011;16028;42.642;23.310;2023-07-08T02:26:02;16.65;;;13.80;;
28910;SDS011;16028;42.642;23.310;2023-07-08T02:28:30;17.20;;;13.95;;
28910;SDS011;16028;42.642;23.310;2023-07-08T02:31:01;17.08;;;14.10;;
28910;SDS011;16028;42.642;23.310;2023-07-08T02:33:28;17.83;;;14.77;;
28910;SDS011;16028;42.642;23.310;2023-07-08T02:35:58;15.68;;;14.05;;
28910;SDS011;16028;42.642;23.310;2023-07-08T02:38:25;14.57;;;13.05;;
28910;SDS011;16028;42.642;23.310;2023-07-08T02:40:52;15.38;;;12.82;;
28910;SDS011;16028;42.642;23.310;2023-07-08T02:43:19;14.35;;;12.85;;
28910;SDS011;16028;42.642;23.310;2023-07-08T02:45:49;19.85;;;13.35;;
28910;SDS011;16028;42.642;23.310;2023-07-08T02:48:16;14.52;;;12.90;;
28910;SDS011;16028;42.642;23.310;2023-07-08T02:50:43;17.90;;;13.65;;
28910;SDS011;16028;42.642;23.310;2023-07-08T02:53:10;15.13;;;13.40;;
28910;SDS011;16028;42.642;23.310;2023-07-08T02:55:37;16.50;;;13.85;;
28910;SDS011;16028;42.642;23.310;2023-07-08T02:58:05;17.52;;;13.70;;
28910;SDS011;16028;42.642;23.310;2023-07-08T03:00:33;15.43;;;13.82;;
28910;SDS011;16028;42.642;23.310;2023-07-08T03:03:04;16.52;;;13.18;;
28910;SDS011;16028;42.642;23.310;2023-07-08T03:05:30;14.63;;;13.02;;
28910;SDS011;16028;42.642;23.310;2023-07-08T03:07:58;13.73;;;12.38;;
28910;SDS011;16028;42.642;23.310;2023-07-08T03:10:25;14.63;;;12.68;;
28910;SDS011;16028;42.642;23.310;2023-07-08T03:12:52;14.35;;;11.77;;
28910;SDS011;16028;42.642;23.310;2023-07-08T03:15:18;15.38;;;11.95;;
28910;SDS011;16028;42.642;23.310;2023-07-08T03:17:45;16.25;;;11.82;;
28910;SDS011;16028;42.642;23.310;2023-07-08T03:20:13;14.23;;;11.25;;
28910;SDS011;16028;42.642;23.310;2023-07-08T03:22:40;17.85;;;11.98;;
28910;SDS011;16028;42.642;23.310;2023-07-08T03:25:07;13.45;;;11.10;;
28910;SDS011;16028;42.642;23.310;2023-07-08T03:27:34;12.70;;;10.57;;
28910;SDS011;16028;42.642;23.310;2023-07-08T03:30:01;17.52;;;11.00;;
28910;SDS011;16028;42.642;23.310;2023-07-08T03:32:30;17.05;;;10.95;;
28910;SDS011;16028;42.642;23.310;2023-07-08T03:34:57;12.10;;;10.68;;
28910;SDS011;16028;42.642;23.310;2023-07-08T03:37:25;12.30;;;10.75;;
28910;SDS011;16028;42.642;23.310;2023-07-08T03:39:52;11.63;;;10.43;;
28910;SDS011;16028;42.642;23.310;2023-07-08T03:42:18;14.07;;;10.55;;
28910;SDS011;16028;42.642;23.310;2023-07-08T03:44:45;13.48;;;10.65;;
28910;SDS011;16028;42.642;23.310;2023-07-08T03:47:12;11.77;;;10.02;;
28910;SDS011;16028;42.642;23.310;2023-07-08T03:49:39;18.02;;;10.32;;
28910;SDS011;16028;42.642;23.310;2023-07-08T03:52:07;13.15;;;9.60;;
28910;SDS011;16028;42.642;23.310;2023-07-08T03:54:42;10.88;;;9.77;;
28910;SDS011;16028;42.642;23.310;2023-07-08T03:57:09;10.57;;;9.13;;
28910;SDS011;16028;42.642;23.310;2023-07-08T03:59:36;10.38;;;9.38;;
28910;SDS011;16028;42.642;23.310;2023-07-08T04:02:02;11.45;;;9.23;;
28910;SDS011;16028;42.642;23.310;2023-07-08T04:04:29;13.82;;;9.95;;
28910;SDS011;16028;42.642;23.310;2023-07-08T04:06:56;10.73;;;8.65;;
28910;SDS011;16028;42.642;23.310;2023-07-08T04:09:23;11.35;;;9.07;;
28910;SDS011;16028;42.642;23.310;2023-07-08T04:11:51;12.27;;;8.88;;
28910;SDS011;16028;42.642;23.310;2023-07-08T04:14:19;9.93;;;8.93;;
28910;SDS011;16028;42.642;23.310;2023-07-08T04:16:47;10.20;;;9.07;;
28910;SDS011;16028;42.642;23.310;2023-07-08T04:19:16;9.77;;;8.77;;
28910;SDS011;16028;42.642;23.310;2023-07-08T04:21:44;9.80;;;8.80;;
28910;SDS011;16028;42.642;23.310;2023-07-08T04:24:12;10.95;;;9.05;;
28910;SDS011;16028;42.642;23.310;2023-07-08T04:26:40;9.88;;;8.88;;
28910;SDS011;16028;42.642;23.310;2023-07-08T04:29:12;12.32;;;8.93;;
28910;SDS011;16028;42.642;23.310;2023-07-08T04:31:39;11.32;;;9.43;;
28910;SDS011;16028;42.642;23.310;2023-07-08T04:34:07;11.27;;;9.57;;
28910;SDS011;16028;42.642;23.310;2023-07-08T04:36:34;12.27;;;9.50;;
28910;SDS011;16028;42.642;23.310;2023-07-08T04:39:01;12.52;;;9.68;;
28910;SDS011;16028;42.642;23.310;2023-07-08T04:41:29;10.93;;;9.77;;
28910;SDS011;16028;42.642;23.310;2023-07-08T04:43:56;10.23;;;9.10;;
28910;SDS011;16028;42.642;23.310;2023-07-08T04:46:29;10.23;;;9.13;;
28910;SDS011;16028;42.642;23.310;2023-07-08T04:49:02;10.43;;;9.18;;
28910;SDS011;16028;42.642;23.310;2023-07-08T04:51:29;12.52;;;9.30;;
28910;SDS011;16028;42.642;23.310;2023-07-08T04:53:56;13.25;;;9.13;;
28910;SDS011;16028;42.642;23.310;2023-07-08T04:56:24;11.02;;;9.90;;
28910;SDS011;16028;42.642;23.310;2023-07-08T04:58:52;11.95;;;9.75;;
28910;SDS011;16028;42.642;23.310;2023-07-08T05:01:21;9.95;;;8.95;;
28910;SDS011;16028;42.642;23.310;2023-07-08T05:03:50;11.13;;;8.98;;
28910;SDS011;16028;42.642;23.310;2023-07-08T05:06:17;9.80;;;8.45;;
28910;SDS011;16028;42.642;23.310;2023-07-08T05:08:44;10.23;;;8.70;;
28910;SDS011;16028;42.642;23.310;2023-07-08T05:11:10;11.10;;;9.23;;
28910;SDS011;16028;42.642;23.310;2023-07-08T05:13:37;10.32;;;8.60;;
28910;SDS011;16028;42.642;23.310;2023-07-08T05:16:04;9.75;;;8.70;;
28910;SDS011;16028;42.642;23.310;2023-07-08T05:18:31;12.88;;;9.13;;
28910;SDS011;16028;42.642;23.310;2023-07-08T05:20:59;11.15;;;9.02;;
28910;SDS011;16028;42.642;23.310;2023-07-08T05:23:28;10.02;;;8.30;;
28910;SDS011;16028;42.642;23.310;2023-07-08T05:25:58;11.13;;;8.23;;
28910;SDS011;16028;42.642;23.310;2023-07-08T05:28:26;8.63;;;7.43;;
28910;SDS011;16028;42.642;23.310;2023-07-08T05:30:53;12.63;;;7.40;;
28910;SDS011;16028;42.642;23.310;2023-07-08T05:33:21;10.05;;;7.72;;
28910;SDS011;16028;42.642;23.310;2023-07-08T05:35:48;15.52;;;7.57;;
28910;SDS011;16028;42.642;23.310;2023-07-08T05:38:17;13.68;;;8.55;;
28910;SDS011;16028;42.642;23.310;2023-07-08T05:40:47;10.88;;;7.22;;
28910;SDS011;16028;42.642;23.310;2023-07-08T05:43:15;8.95;;;7.63;;
28910;SDS011;16028;42.642;23.310;2023-07-08T05:45:42;10.05;;;7.47;;
28910;SDS011;16028;42.642;23.310;2023-07-08T05:48:09;8.05;;;7.25;;
28910;SDS011;16028;42.642;23.310;2023-07-08T05:50:36;10.35;;;7.22;;
28910;SDS011;16028;42.642;23.310;2023-07-08T05:53:02;11.15;;;7.43;;
28910;SDS011;16028;42.642;23.310;2023-07-08T05:55:32;11.30;;;7.40;;
28910;SDS011;16028;42.642;23.310;2023-07-08T05:57:59;7.68;;;6.85;;
28910;SDS011;16028;42.642;23.310;2023-07-08T06:00:26;10.77;;;7.25;;
28910;SDS011;16028;42.642;23.310;2023-07-08T06:02:52;10.32;;;7.03;;
28910;SDS011;16028;42.642;23.310;2023-07-08T06:05:19;7.97;;;6.82;;
28910;SDS011;16028;42.642;23.310;2023-07-08T06:07:46;7.50;;;6.75;;
28910;SDS011;16028;42.642;23.310;2023-07-08T06:10:13;9.32;;;6.95;;
28910;SDS011;16028;42.642;23.310;2023-07-08T06:12:41;7.82;;;7.03;;
28910;SDS011;16028;42.642;23.310;2023-07-08T06:15:08;8.43;;;7.22;;
28910;SDS011;16028;42.642;23.310;2023-07-08T06:17:37;11.15;;;7.78;;
28910;SDS011;16028;42.642;23.310;2023-07-08T06:20:04;10.23;;;7.47;;
28910;SDS011;16028;42.642;23.310;2023-07-08T06:22:32;10.95;;;7.85;;
28910;SDS011;16028;42.642;23.310;2023-07-08T06:24:58;10.75;;;7.88;;
28910;SDS011;16028;42.642;23.310;2023-07-08T06:27:25;9.75;;;7.43;;
28910;SDS011;16028;42.642;23.310;2023-07-08T06:29:54;11.77;;;7.13;;
28910;SDS011;16028;42.642;23.310;2023-07-08T06:32:21;9.05;;;7.78;;
28910;SDS011;16028;42.642;23.310;2023-07-08T06:34:48;9.88;;;7.53;;
28910;SDS011;16028;42.642;23.310;2023-07-08T06:37:14;11.63;;;7.47;;
28910;SDS011;16028;42.642;23.310;2023-07-08T06:39:41;9.45;;;7.13;;
28910;SDS011;16028;42.642;23.310;2023-07-08T06:42:08;8.68;;;6.43;;
28910;SDS011;16028;42.642;23.310;2023-07-08T06:44:35;11.00;;;7.00;;
28910;SDS011;16028;42.642;23.310;2023-07-08T06:47:04;8.60;;;7.30;;
28910;SDS011;16028;42.642;23.310;2023-07-08T06:49:31;10.35;;;7.05;;
28910;SDS011;16028;42.642;23.310;2023-07-08T06:51:58;7.60;;;6.68;;
28910;SDS011;16028;42.642;23.310;2023-07-08T06:54:26;9.93;;;7.05;;
28910;SDS011;16028;42.642;23.310;2023-07-08T06:56:53;13.95;;;7.55;;
28910;SDS011;16028;42.642;23.310;2023-07-08T06:59:19;8.70;;;6.50;;
28910;SDS011;16028;42.642;23.310;2023-07-08T07:01:46;11.38;;;7.32;;
28910;SDS011;16028;42.642;23.310;2023-07-08T07:04:14;8.38;;;7.07;;
28910;SDS011;16028;42.642;23.310;2023-07-08T07:06:41;12.57;;;7.35;;
28910;SDS011;16028;42.642;23.310;2023-07-08T07:09:08;9.48;;;7.25;;
28910;SDS011;16028;42.642;23.310;2023-07-08T07:11:34;8.95;;;7.68;;
28910;SDS011;16028;42.642;23.310;2023-07-08T07:14:01;11.73;;;7.70;;
28910;SDS011;16028;42.642;23.310;2023-07-08T07:16:28;9.00;;;8.05;;
28910;SDS011;16028;42.642;23.310;2023-07-08T07:18:55;9.05;;;8.05;;
28910;SDS011;16028;42.642;23.310;2023-07-08T07:21:23;11.93;;;8.68;;
28910;SDS011;16028;42.642;23.310;2023-07-08T07:23:50;9.65;;;8.65;;
28910;SDS011;16028;42.642;23.310;2023-07-08T07:26:17;12.40;;;8.68;;
28910;SDS011;16028;42.642;23.310;2023-07-08T07:28:43;9.77;;;8.18;;
28910;SDS011;16028;42.642;23.310;2023-07-08T07:31:10;11.50;;;7.70;;
28910;SDS011;16028;42.642;23.310;2023-07-08T07:33:37;11.77;;;8.05;;
28910;SDS011;16028;42.642;23.310;2023-07-08T07:36:04;13.18;;;9.15;;
28910;SDS011;16028;42.642;23.310;2023-07-08T07:38:33;10.43;;;8.68;;
28910;SDS011;16028;42.642;23.310;2023-07-08T07:41:00;9.57;;;8.15;;
28910;SDS011;16028;42.642;23.310;2023-07-08T07:43:33;11.82;;;8.18;;
28910;SDS011;16028;42.642;23.310;2023-07-08T07:46:00;9.93;;;7.75;;
28910;SDS011;16028;42.642;23.310;2023-07-08T07:48:27;9.75;;;7.57;;
28910;SDS011;16028;42.642;23.310;2023-07-08T07:50:54;11.68;;;7.60;;
28910;SDS011;16028;42.642;23.310;2023-07-08T07:53:21;8.70;;;7.22;;
28910;SDS011;16028;42.642;23.310;2023-07-08T07:55:54;17.83;;;7.35;;
28910;SDS011;16028;42.642;23.310;2023-07-08T07:58:22;14.13;;;7.78;;
28910;SDS011;16028;42.642;23.310;2023-07-08T08:00:49;10.45;;;6.70;;
28910;SDS011;16028;42.642;23.310;2023-07-08T08:03:15;7.10;;;6.40;;
28910;SDS011;16028;42.642;23.310;2023-07-08T08:05:42;10.23;;;6.65;;
28910;SDS011;16028;42.642;23.310;2023-07-08T08:08:09;7.90;;;6.07;;
28910;SDS011;16028;42.642;23.310;2023-07-08T08:10:36;7.20;;;6.47;;
28910;SDS011;16028;42.642;23.310;2023-07-08T08:13:04;11.80;;;6.38;;
28910;SDS011;16028;42.642;23.310;2023-07-08T08:15:32;9.27;;;6.70;;
28910;SDS011;16028;42.642;23.310;2023-07-08T08:17:59;10.40;;;6.25;;
28910;SDS011;16028;42.642;23.310;2023-07-08T08:20:26;9.55;;;6.38;;
28910;SDS011;16028;42.642;23.310;2023-07-08T08:22:53;7.32;;;6.32;;
28910;SDS011;16028;42.642;23.310;2023-07-08T08:25:21;12.18;;;6.97;;
28910;SDS011;16028;42.642;23.310;2023-07-08T08:27:49;7.80;;;7.00;;
28910;SDS011;16028;42.642;23.310;2023-07-08T08:30:19;7.97;;;7.20;;
28910;SDS011;16028;42.642;23.310;2023-07-08T08:32:46;10.25;;;6.80;;
28910;SDS011;16028;42.642;23.310;2023-07-08T08:35:12;9.35;;;6.93;;
28910;SDS011;16028;42.642;23.310;2023-07-08T08:37:39;10.05;;;6.78;;
28910;SDS011;16028;42.642;23.310;2023-07-08T08:40:07;11.70;;;6.20;;
28910;SDS011;16028;42.642;23.310;2023-07-08T08:42:40;11.32;;;6.63;;
28910;SDS011;16028;42.642;23.310;2023-07-08T08:45:13;11.18;;;6.45;;
28910;SDS011;16028;42.642;23.310;2023-07-08T08:47:48;10.00;;;7.35;;
28910;SDS011;16028;42.642;23.310;2023-07-08T08:50:24;8.40;;;6.82;;
28910;SDS011;16028;42.642;23.310;2023-07-08T08:52:56;9.88;;;6.75;;
28910;SDS011;16028;42.642;23.310;2023-07-08T08:55:25;7.70;;;6.88;;
28910;SDS011;16028;42.642;23.310;2023-07-08T08:57:54;7.80;;;6.80;;
28910;SDS011;16028;42.642;23.310;2023-07-08T09:00:37;11.00;;;7.13;;
28910;SDS011;16028;42.642;23.310;2023-07-08T09:03:14;9.52;;;7.68;;
28910;SDS011;16028;42.642;23.310;2023-07-08T09:05:42;8.50;;;7.15;;
28910;SDS011;16028;42.642;23.310;2023-07-08T09:08:12;8.82;;;7.03;;
28910;SDS011;16028;42.642;23.310;2023-07-08T09:10:43;7.78;;;6.18;;
28910;SDS011;16028;42.642;23.310;2023-07-08T09:13:15;10.57;;;6.95;;
28910;SDS011;16028;42.642;23.310;2023-07-08T09:16:06;7.97;;;6.85;;
28910;SDS011;16028;42.642;23.310;2023-07-08T09:18:43;8.20;;;7.00;;
28910;SDS011;16028;42.642;23.310;2023-07-08T09:21:27;10.13;;;6.78;;
28910;SDS011;16028;42.642;23.310;2023-07-08T09:23:59;9.75;;;6.93;;
28910;SDS011;16028;42.642;23.310;2023-07-08T09:26:30;7.25;;;6.55;;
28910;SDS011;16028;42.642;23.310;2023-07-08T09:28:59;9.80;;;6.90;;
28910;SDS011;16028;42.642;23.310;2023-07-08T09:31:27;7.25;;;6.50;;
28910;SDS011;16028;42.642;23.310;2023-07-08T09:34:05;8.32;;;6.72;;
28910;SDS011;16028;42.642;23.310;2023-07-08T09:36:38;8.27;;;6.68;;
28910;SDS011;16028;42.642;23.310;2023-07-08T09:39:09;7.78;;;6.57;;
28910;SDS011;16028;42.642;23.310;2023-07-08T09:41:36;10.63;;;6.90;;
28910;SDS011;16028;42.642;23.310;2023-07-08T09:44:05;10.18;;;7.40;;
28910;SDS011;16028;42.642;23.310;2023-07-08T09:46:38;10.30;;;6.53;;
28910;SDS011;16028;42.642;23.310;2023-07-08T09:49:17;7.93;;;6.50;;
28910;SDS011;16028;42.642;23.310;2023-07-08T09:51:47;8.25;;;6.80;;
28910;SDS011;16028;42.642;23.310;2023-07-08T09:54:15;7.85;;;5.95;;
28910;SDS011;16028;42.642;23.310;2023-07-08T09:56:44;7.50;;;6.25;;
28910;SDS011;16028;42.642;23.310;2023-07-08T09:59:23;7.22;;;6.25;;
28910;SDS011;16028;42.642;23.310;2023-07-08T10:01:59;8.13;;;6.38;;
28910;SDS011;16028;42.642;23.310;2023-07-08T10:04:30;7.30;;;6.60;;
28910;SDS011;16028;42.642;23.310;2023-07-08T10:06:57;6.75;;;5.75;;
28910;SDS011;16028;42.642;23.310;2023-07-08T10:09:26;6.65;;;6.00;;
28910;SDS011;16028;42.642;23.310;2023-07-08T10:11:54;6.47;;;5.88;;
28910;SDS011;16028;42.642;23.310;2023-07-08T10:14:27;6.45;;;5.65;;
28910;SDS011;16028;42.642;23.310;2023-07-08T10:16:59;6.43;;;5.45;;
28910;SDS011;16028;42.642;23.310;2023-07-08T10:19:27;7.20;;;5.82;;
28910;SDS011;16028;42.642;23.310;2023-07-08T10:22:07;7.55;;;5.82;;
28910;SDS011;16028;42.642;23.310;2023-07-08T10:24:48;6.10;;;5.28;;
28910;SDS011;16028;42.642;23.310;2023-07-08T10:27:29;6.65;;;5.65;;
28910;SDS011;16028;42.642;23.310;2023-07-08T10:32:44;6.85;;;5.25;;
28910;SDS011;16028;42.642;23.310;2023-07-08T10:35:20;7.70;;;5.00;;
28910;SDS011;16028;42.642;23.310;2023-07-08T10:37:57;6.75;;;5.35;;
28910;SDS011;16028;42.642;23.310;2023-07-08T10:40:39;8.68;;;5.65;;
28910;SDS011;16028;42.642;23.310;2023-07-08T10:43:20;6.72;;;5.13;;
28910;SDS011;16028;42.642;23.310;2023-07-08T10:46:09;6.25;;;5.07;;
28910;SDS011;16028;42.642;23.310;2023-07-08T10:48:52;7.47;;;5.15;;
28910;SDS011;16028;42.642;23.310;2023-07-08T10:51:32;7.88;;;5.20;;
28910;SDS011;16028;42.642;23.310;2023-07-08T10:54:13;7.13;;;4.80;;
28910;SDS011;16028;42.642;23.310;2023-07-08T10:56:54;6.72;;;5.38;;
28910;SDS011;16028;42.642;23.310;2023-07-08T10:59:34;5.53;;;5.03;;
28910;SDS011;16028;42.642;23.310;2023-07-08T11:05:13;6.60;;;5.05;;
28910;SDS011;16028;42.642;23.310;2023-07-08T11:07:51;5.55;;;4.90;;
28910;SDS011;16028;42.642;23.310;2023-07-08T11:10:24;5.95;;;5.35;;
28910;SDS011;16028;42.642;23.310;2023-07-08T11:12:55;5.38;;;4.63;;
28910;SDS011;16028;42.642;23.310;2023-07-08T11:15:28;7.75;;;4.93;;
28910;SDS011;16028;42.642;23.310;2023-07-08T11:17:59;5.40;;;4.50;;
28910;SDS011;16028;42.642;23.310;2023-07-08T11:20:34;6.18;;;4.38;;
28910;SDS011;16028;42.642;23.310;2023-07-08T11:23:08;9.35;;;4.60;;
28910;SDS011;16028;42.642;23.310;2023-07-08T11:25:43;5.57;;;4.80;;
28910;SDS011;16028;42.642;23.310;2023-07-08T11:28:12;5.35;;;4.85;;
28910;SDS011;16028;42.642;23.310;2023-07-08T11:30:43;5.85;;;4.90;;
28910;SDS011;16028;42.642;23.310;2023-07-08T11:33:14;5.93;;;4.68;;
28910;SDS011;16028;42.642;23.310;2023-07-08T11:35:44;5.75;;;5.20;;
28910;SDS011;16028;42.642;23.310;2023-07-08T11:38:15;5.88;;;5.28;;
28910;SDS011;16028;42.642;23.310;2023-07-08T11:40:55;11.15;;;5.10;;
28910;SDS011;16028;42.642;23.310;2023-07-08T11:43:24;5.25;;;4.72;;
28910;SDS011;16028;42.642;23.310;2023-07-08T11:45:54;6.47;;;5.20;;
28910;SDS011;16028;42.642;23.310;2023-07-08T11:48:22;6.65;;;5.63;;
28910;SDS011;16028;42.642;23.310;2023-07-08T11:50:53;6.60;;;5.22;;
28910;SDS011;16028;42.642;23.310;2023-07-08T11:56:24;6.32;;;5.63;;
28910;SDS011;16028;42.642;23.310;2023-07-08T11:58:59;6.32;;;5.00;;
28910;SDS011;16028;42.642;23.310;2023-07-08T12:01:38;5.40;;;4.82;;
28910;SDS011;16028;42.642;23.310;2023-07-08T12:04:24;6.32;;;4.55;;
28910;SDS011;16028;42.642;23.310;2023-07-08T12:07:02;5.15;;;4.40;;
28910;SDS011;16028;42.642;23.310;2023-07-08T12:09:35;5.65;;;4.68;;
28910;SDS011;16028;42.642;23.310;2023-07-08T12:12:07;7.32;;;4.78;;
28910;SDS011;16028;42.642;23.310;2023-07-08T12:14:46;6.95;;;4.28;;
28910;SDS011;16028;42.642;23.310;2023-07-08T12:17:12;5.00;;;4.50;;
28910;SDS011;16028;42.642;23.310;2023-07-08T12:19:41;5.50;;;4.38;;
28910;SDS011;16028;42.642;23.310;2023-07-08T12:22:10;4.38;;;3.97;;
28910;SDS011;16028;42.642;23.310;2023-07-08T12:24:38;7.15;;;4.82;;
28910;SDS011;16028;42.642;23.310;2023-07-08T12:27:07;6.47;;;4.43;;
28910;SDS011;16028;42.642;23.310;2023-07-08T12:29:36;6.75;;;4.53;;
28910;SDS011;16028;42.642;23.310;2023-07-08T12:32:03;5.05;;;4.53;;
28910;SDS011;16028;42.642;23.310;2023-07-08T12:34:31;7.00;;;4.38;;
28910;SDS011;16028;42.642;23.310;2023-07-08T12:36:58;12.05;;;4.70;;
28910;SDS011;16028;42.642;23.310;2023-07-08T12:39:28;5.68;;;4.50;;
28910;SDS011;16028;42.642;23.310;2023-07-08T12:41:59;4.80;;;4.28;;
28910;SDS011;16028;42.642;23.310;2023-07-08T12:44:27;5.55;;;4.47;;
28910;SDS011;16028;42.642;23.310;2023-07-08T12:46:54;5.47;;;3.95;;
28910;SDS011;16028;42.642;23.310;2023-07-08T12:49:21;4.47;;;3.70;;
28910;SDS011;16028;42.642;23.310;2023-07-08T12:51:52;5.13;;;4.43;;
28910;SDS011;16028;42.642;23.310;2023-07-08T12:54:19;4.63;;;3.90;;
28910;SDS011;16028;42.642;23.310;2023-07-08T12:56:47;5.07;;;4.25;;
28910;SDS011;16028;42.642;23.310;2023-07-08T12:59:14;4.72;;;4.25;;
28910;SDS011;16028;42.642;23.310;2023-07-08T13:01:47;5.00;;;4.03;;
28910;SDS011;16028;42.642;23.310;2023-07-08T13:04:17;4.93;;;4.10;;
28910;SDS011;16028;42.642;23.310;2023-07-08T13:06:44;4.80;;;4.25;;
28910;SDS011;16028;42.642;23.310;2023-07-08T13:12:00;4.88;;;4.15;;
28910;SDS011;16028;42.642;23.310;2023-07-08T13:14:30;6.75;;;4.47;;
28910;SDS011;16028;42.642;23.310;2023-07-08T13:16:58;4.55;;;3.95;;
28910;SDS011;16028;42.642;23.310;2023-07-08T13:19:25;7.80;;;4.05;;
28910;SDS011;16028;42.642;23.310;2023-07-08T13:21:52;4.88;;;4.25;;
28910;SDS011;16028;42.642;23.310;2023-07-08T13:24:20;6.50;;;4.00;;
28910;SDS011;16028;42.642;23.310;2023-07-08T13:26:47;6.97;;;3.83;;
28910;SDS011;16028;42.642;23.310;2023-07-08T13:29:17;4.25;;;3.67;;
28910;SDS011;16028;42.642;23.310;2023-07-08T13:31:47;7.97;;;3.72;;
28910;SDS011;16028;42.642;23.310;2023-07-08T13:34:17;5.32;;;3.67;;
28910;SDS011;16028;42.642;23.310;2023-07-08T13:36:48;4.55;;;3.50;;
28910;SDS011;16028;42.642;23.310;2023-07-08T13:39:19;5.53;;;4.07;;
28910;SDS011;16028;42.642;23.310;2023-07-08T13:41:51;4.95;;;3.35;;
28910;SDS011;16028;42.642;23.310;2023-07-08T13:44:17;5.13;;;3.58;;
28910;SDS011;16028;42.642;23.310;2023-07-08T13:46:45;5.40;;;3.97;;
28910;SDS011;16028;42.642;23.310;2023-07-08T13:49:22;5.03;;;3.60;;
28910;SDS011;16028;42.642;23.310;2023-07-08T13:51:55;6.72;;;4.07;;
28910;SDS011;16028;42.642;23.310;2023-07-08T13:54:32;6.38;;;3.72;;
28910;SDS011;16028;42.642;23.310;2023-07-08T13:57:08;5.95;;;3.80;;
28910;SDS011;16028;42.642;23.310;2023-07-08T13:59:36;5.22;;;3.78;;
28910;SDS011;16028;42.642;23.310;2023-07-08T14:02:08;5.40;;;3.40;;
28910;SDS011;16028;42.642;23.310;2023-07-08T14:04:42;5.78;;;3.60;;
28910;SDS011;16028;42.642;23.310;2023-07-08T14:07:13;5.78;;;3.90;;
28910;SDS011;16028;42.642;23.310;2023-07-08T14:09:45;4.72;;;3.70;;
28910;SDS011;16028;42.642;23.310;2023-07-08T14:12:12;5.05;;;4.10;;
28910;SDS011;16028;42.642;23.310;2023-07-08T14:14:39;5.40;;;3.90;;
28910;SDS011;16028;42.642;23.310;2023-07-08T14:17:07;4.00;;;3.60;;
28910;SDS011;16028;42.642;23.310;2023-07-08T14:19:35;4.18;;;3.72;;
28910;SDS011;16028;42.642;23.310;2023-07-08T14:22:09;4.03;;;3.40;;
28910;SDS011;16028;42.642;23.310;2023-07-08T14:24:51;6.82;;;3.40;;
28910;SDS011;16028;42.642;23.310;2023-07-08T14:27:18;4.10;;;3.20;;
28910;SDS011;16028;42.642;23.310;2023-07-08T14:29:46;4.65;;;3.70;;
28910;SDS011;16028;42.642;23.310;2023-07-08T14:32:15;4.22;;;3.65;;
28910;SDS011;16028;42.642;23.310;2023-07-08T14:34:47;4.43;;;3.80;;
28910;SDS011;16028;42.642;23.310;2023-07-08T14:37:17;4.60;;;3.47;;
28910;SDS011;16028;42.642;23.310;2023-07-08T14:39:44;7.57;;;4.00;;
28910;SDS011;16028;42.642;23.310;2023-07-08T14:42:12;6.43;;;4.13;;
28910;SDS011;16028;42.642;23.310;2023-07-08T14:44:40;5.70;;;3.88;;
28910;SDS011;16028;42.642;23.310;2023-07-08T14:47:09;4.75;;;3.85;;
28910;SDS011;16028;42.642;23.310;2023-07-08T14:49:37;6.82;;;3.58;;